sensor_id;sensor_type;location;lat;lon;timestamp;P1;durP1;ratioP1;P2;durP2;ratioP2
3735;SDS011;1883;48.202;16.310;2023-07-31T01:15:33;7.27;;;2.30;;
3735;SDS011;1883;48.202;16.310;2023-07-31T01:18:21;6.17;;;1.93;;
3735;SDS011;1883;48.202;16.310;2023-07-31T01:21:06;8.80;;;2.53;;
3735;SDS011;1883;48.202;16.310;2023-07-31T01:24:08;8.17;;;2.40;;
3735;SDS011;1883;48.202;16.310;2023-07-31T02:13:08;12.03;;;2.70;;
3735;SDS011;1883;48.202;16.310;2023-07-31T02:15:36;7.40;;;2.20;;
3735;SDS011;1883;48.202;16.310;2023-07-31T02:18:03;7.07;;;2.53;;
3735;SDS011;1883;48.202;16.310;2023-07-31T02:20:32;9.00;;;2.63;;
3735;SDS011;1883;48.202;16.310;2023-07-31T02:23:00;10.27;;;2.53;;
3735;SDS011;1883;48.202;16.310;2023-07-31T02:25:28;9.40;;;2.13;;
3735;SDS011;1883;48.202;16.310;2023-07-31T02:27:55;13.53;;;2.60;;
3735;SDS011;1883;48.202;16.310;2023-07-31T02:30:22;11.47;;;2.30;;
3735;SDS011;1883;48.202;16.310;2023-07-31T02:32:49;12.57;;;2.80;;
3735;SDS011;1883;48.202;16.310;2023-07-31T02:35:18;8.20;;;2.53;;
3735;SDS011;1883;48.202;16.310;2023-07-31T02:38:08;12.33;;;2.40;;
3735;SDS011;1883;48.202;16.310;2023-07-31T02:44:29;9.33;;;2.80;;
3735;SDS011;1883;48.202;16.310;2023-07-31T02:47:01;8.20;;;2.57;;
3735;SDS011;1883;48.202;16.310;2023-07-31T02:49:40;8.23;;;2.63;;
3735;SDS011;1883;48.202;16.310;2023-07-31T02:52:25;7.13;;;2.57;;
3735;SDS011;1883;48.202;16.310;2023-07-31T02:55:07;8.80;;;2.87;;
3735;SDS011;1883;48.202;16.310;2023-07-31T02:57:48;9.63;;;2.40;;
3735;SDS011;1883;48.202;16.310;2023-07-31T03:03:39;7.77;;;2.33;;
3735;SDS011;1883;48.202;16.310;2023-07-31T03:06:22;12.00;;;3.07;;
3735;SDS011;1883;48.202;16.310;2023-07-31T03:09:03;9.80;;;2.40;;
3735;SDS011;1883;48.202;16.310;2023-07-31T03:11:45;10.93;;;2.73;;
3735;SDS011;1883;48.202;16.310;2023-07-31T03:14:28;9.30;;;2.30;;
3735;SDS011;1883;48.202;16.310;2023-07-31T03:23:37;12.93;;;2.77;;
3735;SDS011;1883;48.202;16.310;2023-07-31T03:26:05;8.03;;;3.20;;
3735;SDS011;1883;48.202;16.310;2023-07-31T03:28:33;10.90;;;3.17;;
3735;SDS011;1883;48.202;16.310;2023-07-31T03:31:00;42.63;;;12.13;;
3735;SDS011;1883;48.202;16.310;2023-07-31T03:33:27;49.93;;;15.27;;
3735;SDS011;1883;48.202;16.310;2023-07-31T03:36:15;27.90;;;8.33;;
3735;SDS011;1883;48.202;16.310;2023-07-31T07:58:39;10.93;;;2.60;;
3735;SDS011;1883;48.202;16.310;2023-07-31T08:01:35;8.13;;;2.37;;
3735;SDS011;1883;48.202;16.310;2023-07-31T08:04:34;10.40;;;2.00;;
3735;SDS011;1883;48.202;16.310;2023-07-31T08:07:20;10.47;;;2.30;;
3735;SDS011;1883;48.202;16.310;2023-07-31T08:10:25;12.30;;;2.10;;
3735;SDS011;1883;48.202;16.310;2023-07-31T08:32:36;7.87;;;2.23;;
3735;SDS011;1883;48.202;16.310;2023-07-31T08:35:19;8.17;;;2.23;;
3735;SDS011;1883;48.202;16.310;2023-07-31T08:38:16;7.13;;;1.70;;
3735;SDS011;1883;48.202;16.310;2023-07-31T08:41:13;8.17;;;2.13;;
3735;SDS011;1883;48.202;16.310;2023-07-31T08:43:59;8.17;;;2.00;;
3735;SDS011;1883;48.202;16.310;2023-07-31T08:53:19;7.77;;;2.23;;
3735;SDS011;1883;48.202;16.310;2023-07-31T08:56:02;11.97;;;1.90;;
3735;SDS011;1883;48.202;16.310;2023-07-31T08:58:59;10.17;;;2.30;;
3735;SDS011;1883;48.202;16.310;2023-07-31T09:01:30;9.80;;;2.10;;
3735;SDS011;1883;48.202;16.310;2023-07-31T09:04:45;13.03;;;2.67;;
3735;SDS011;1883;48.202;16.310;2023-07-31T09:32:08;10.90;;;2.30;;
3735;SDS011;1883;48.202;16.310;2023-07-31T09:35:00;10.47;;;2.47;;
3735;SDS011;1883;48.202;16.310;2023-07-31T09:38:14;9.57;;;1.77;;
3735;SDS011;1883;48.202;16.310;2023-07-31T09:41:01;11.27;;;2.20;;
3735;SDS011;1883;48.202;16.310;2023-07-31T22:46:51;15.10;;;4.43;;
3735;SDS011;1883;48.202;16.310;2023-07-31T22:49:32;19.73;;;7.37;;
3735;SDS011;1883;48.202;16.310;2023-07-31T22:52:02;11.80;;;4.50;;
3735;SDS011;1883;48.202;16.310;2023-07-31T22:54:45;17.00;;;6.23;;
3735;SDS011;1883;48.202;16.310;2023-07-31T22:57:29;16.50;;;4.93;;
3735;SDS011;1883;48.202;16.310;2023-07-31T23:09:27;9.73;;;3.30;;
3735;SDS011;1883;48.202;16.310;2023-07-31T23:12:09;11.60;;;3.50;;
3735;SDS011;1883;48.202;16.310;2023-07-31T23:14:44;12.53;;;3.57;;
3735;SDS011;1883;48.202;16.310;2023-07-31T23:17:30;11.60;;;3.93;;
3735;SDS011;1883;48.202;16.310;2023-07-31T23:20:22;30.73;;;6.10;;
3735;SDS011;1883;48.202;16.310;2023-07-31T23:23:04;9.40;;;3.57;;
3735;SDS011;1883;48.202;16.310;2023-07-31T23:38:42;20.53;;;4.43;;
3735;SDS011;1883;48.202;16.310;2023-07-31T23:41:11;21.73;;;5.00;;
3735;SDS011;1883;48.202;16.310;2023-07-31T23:43:41;11.73;;;3.90;;
3735;SDS011;1883;48.202;16.310;2023-07-31T23:46:31;13.23;;;4.80;;
3735;SDS011;1883;48.202;16.310;2023-07-31T23:49:11;13.23;;;4.63;;
3735;SDS011;1883;48.202;16.310;2023-07-31T23:51:54;10.23;;;3.80;;
3735;SDS011;1883;48.202;16.310;2023-07-31T23:54:24;11.50;;;4.47;;
3735;SDS011;1883;48.202;16.310;2023-07-31T23:57:07;11.80;;;4.07;;
3735;SDS011;1883;48.202;16.310;2023-07-31T23:59:34;17.23;;;4.17;;
